createdAt,value
2022-08-22T00:00:17.257Z,6.00
2022-08-22T00:02:56.264Z,6.60
2022-08-22T00:02:57.557Z,5.25
2022-08-22T00:03:11.263Z,6.00
2022-08-22T00:03:16.175Z,7.00
2022-08-22T00:05:46.541Z,7.40
2022-08-22T00:08:23.343Z,5.50
2022-08-22T00:10:57.835Z,6.00
2022-08-22T00:13:32.849Z,6.00
2022-08-22T00:16:06.946Z,4.50
2022-08-22T00:18:41.417Z,5.00
2022-08-22T00:21:15.894Z,7.60
2022-08-22T00:23:50.942Z,6.00
2022-08-22T00:26:25.932Z,6.00
2022-08-22T00:28:59.981Z,6.00
2022-08-22T00:31:34.437Z,4.50
2022-08-22T00:34:09.475Z,7.00
2022-08-22T00:36:47.699Z,7.00
2022-08-22T00:39:22.002Z,6.00
2022-08-22T00:41:56.493Z,6.00
2022-08-22T00:44:31.574Z,7.00
2022-08-22T00:47:06.495Z,5.00
2022-08-22T00:49:40.841Z,5.60
2022-08-22T00:52:15.354Z,3.60
2022-08-22T00:54:52.367Z,4.40
2022-08-22T00:57:27.532Z,5.00
2022-08-22T01:00:01.562Z,5.25
2022-08-22T01:02:36.007Z,6.40
2022-08-22T01:05:10.484Z,6.00
2022-08-22T01:07:44.509Z,6.00
2022-08-22T01:10:18.917Z,6.00
2022-08-22T01:12:53.385Z,4.50
2022-08-22T01:15:27.965Z,6.00
2022-08-22T01:18:03.032Z,5.20
2022-08-22T01:20:37.523Z,5.00
2022-08-22T01:23:11.989Z,6.50
2022-08-22T01:25:46.472Z,6.20
2022-08-22T01:28:24.061Z,5.20
2022-08-22T01:30:59.978Z,7.00
2022-08-22T01:33:34.377Z,6.60
2022-08-22T01:36:08.779Z,7.00
2022-08-22T01:38:46.134Z,7.25
2022-08-22T01:41:21.082Z,6.60
2022-08-22T01:44:00.619Z,7.00
2022-08-22T01:46:35.094Z,7.20
2022-08-22T01:49:09.625Z,6.00
2022-08-22T01:51:44.068Z,9.20
2022-08-22T01:54:18.735Z,6.60
2022-08-22T01:56:53.135Z,7.60
2022-08-22T01:59:33.825Z,6.20
2022-08-22T02:02:08.520Z,9.00
2022-08-22T02:04:43.016Z,7.00
2022-08-22T02:07:37.108Z,10.00
2022-08-22T02:10:11.525Z,9.00
2022-08-22T02:12:46.011Z,8.00
2022-08-22T02:15:21.059Z,8.67
2022-08-22T02:17:55.557Z,7.50
2022-08-22T02:20:30.070Z,8.00
2022-08-22T02:23:04.928Z,8.00
2022-08-22T02:25:39.191Z,9.00
2022-08-22T02:28:13.605Z,8.75
2022-08-22T02:31:06.963Z,9.40
2022-08-22T02:33:42.760Z,12.20
2022-08-22T02:36:17.229Z,7.00
2022-08-22T02:38:52.230Z,7.00
2022-08-22T02:41:27.248Z,8.00
2022-08-22T02:44:05.887Z,7.00
2022-08-22T02:46:40.026Z,9.00
2022-08-22T02:49:14.462Z,7.50
2022-08-22T02:51:48.559Z,8.67
2022-08-22T02:54:23.486Z,12.40
2022-08-22T02:56:57.995Z,11.25
2022-08-22T02:59:33.053Z,12.00
2022-08-22T03:02:07.075Z,16.75
2022-08-22T03:04:45.144Z,10.40
2022-08-22T03:07:19.221Z,13.75
2022-08-22T03:09:54.309Z,8.00
2022-08-22T03:12:29.461Z,13.40
2022-08-22T03:15:04.103Z,10.40
2022-08-22T03:17:39.449Z,13.00
2022-08-22T03:20:13.491Z,23.00
2022-08-22T03:22:48.673Z,24.20
2022-08-22T03:25:23.091Z,29.00
2022-08-22T03:27:57.623Z,30.50
2022-08-22T03:30:31.657Z,26.00
2022-08-22T03:33:06.380Z,28.80
2022-08-22T03:35:41.281Z,33.80
2022-08-22T03:38:16.406Z,31.00
2022-08-22T03:40:50.784Z,30.40
2022-08-22T03:43:25.825Z,28.00
2022-08-22T03:45:59.824Z,30.40
2022-08-22T03:48:34.279Z,27.50
2022-08-22T03:51:08.753Z,31.00
2022-08-22T03:53:43.117Z,33.00
2022-08-22T03:56:17.146Z,30.50
2022-08-22T03:58:53.353Z,27.75
2022-08-22T04:01:27.879Z,26.60
2022-08-22T04:04:02.347Z,26.00
2022-08-22T04:06:37.129Z,28.00
2022-08-22T04:09:12.581Z,29.80
2022-08-22T04:11:48.882Z,29.00
2022-08-22T04:14:25.235Z,26.00
2022-08-22T04:17:01.284Z,25.00
2022-08-22T04:19:39.557Z,22.25
2022-08-22T04:22:13.580Z,23.00
2022-08-22T04:24:48.956Z,22.60
2022-08-22T04:27:26.830Z,25.40
2022-08-22T04:30:02.603Z,16.75
2022-08-22T04:32:37.423Z,23.60
2022-08-22T04:35:12.544Z,26.00
2022-08-22T04:37:47.775Z,19.40
2022-08-22T04:40:22.608Z,25.25
2022-08-22T04:42:57.155Z,22.00
2022-08-22T04:45:31.696Z,28.80
2022-08-22T04:48:25.815Z,28.60
2022-08-22T04:51:00.262Z,30.50
2022-08-22T04:53:34.693Z,33.40
2022-08-22T04:56:09.196Z,30.40
2022-08-22T04:58:43.846Z,35.50
2022-08-22T05:01:17.911Z,31.40
2022-08-22T05:03:53.081Z,27.00
2022-08-22T05:06:28.542Z,30.50
2022-08-22T05:09:03.587Z,23.60
2022-08-22T05:11:38.385Z,21.60
2022-08-22T05:14:13.525Z,15.00
2022-08-22T05:16:48.812Z,17.00
2022-08-22T05:19:29.635Z,15.00
2022-08-22T05:22:05.842Z,15.40
2022-08-22T05:24:41.048Z,15.00
2022-08-22T05:27:15.297Z,17.75
2022-08-22T05:29:49.780Z,12.00
2022-08-22T05:32:34.041Z,12.20
2022-08-22T05:35:09.547Z,11.00
2022-08-22T05:37:46.992Z,12.60
2022-08-22T05:40:21.558Z,10.40
2022-08-22T05:42:55.845Z,12.00
2022-08-22T05:45:34.329Z,13.75
2022-08-22T05:48:08.750Z,12.25
2022-08-22T05:50:50.484Z,22.50
2022-08-22T05:53:25.622Z,14.00
2022-08-22T05:56:02.159Z,13.00
2022-08-22T05:58:36.985Z,10.00
2022-08-22T06:01:12.044Z,13.00
2022-08-22T06:03:47.747Z,15.50
2022-08-22T06:06:28.354Z,11.40
2022-08-22T06:09:02.963Z,14.00
2022-08-22T06:11:38.750Z,19.00
2022-08-22T06:14:13.213Z,12.80
2022-08-22T06:16:48.898Z,11.60
2022-08-22T06:19:28.942Z,13.00
2022-08-22T06:22:04.183Z,14.60
2022-08-22T06:24:38.910Z,17.00
2022-08-22T06:27:14.805Z,12.75
2022-08-22T06:29:50.776Z,13.40
2022-08-22T06:32:58.413Z,15.50
2022-08-22T06:35:49.689Z,16.75
2022-08-22T06:38:49.426Z,14.00
2022-08-22T06:41:40.724Z,15.75
2022-08-22T06:44:24.046Z,12.25
2022-08-22T06:46:58.272Z,13.50
2022-08-22T06:49:32.376Z,11.60
2022-08-22T06:52:06.630Z,13.00
2022-08-22T06:54:41.690Z,15.20
2022-08-22T06:57:34.104Z,13.00
2022-08-22T07:00:08.513Z,15.00
2022-08-22T07:02:46.052Z,13.40
2022-08-22T07:05:20.798Z,14.00
2022-08-22T07:07:58.358Z,13.60
2022-08-22T07:10:34.415Z,15.00
2022-08-22T07:13:12.598Z,13.80
2022-08-22T07:15:46.720Z,18.75
2022-08-22T07:18:21.858Z,15.00
2022-08-22T07:21:00.846Z,16.33
2022-08-22T07:23:39.331Z,13.25
2022-08-22T07:26:16.535Z,13.00
2022-08-22T07:28:57.877Z,19.40
2022-08-22T07:31:38.685Z,16.00
2022-08-22T07:34:13.731Z,14.60
2022-08-22T07:36:48.537Z,16.00
2022-08-22T07:39:26.520Z,19.00
2022-08-22T07:42:04.234Z,19.00
2022-08-22T07:44:39.504Z,22.75
2022-08-22T07:47:26.126Z,19.40
2022-08-22T07:50:00.959Z,28.40
2022-08-22T07:52:36.702Z,24.50
2022-08-22T07:55:14.670Z,28.50
2022-08-22T07:57:49.650Z,24.50
2022-08-22T08:00:35.411Z,24.40
2022-08-22T08:03:26.479Z,28.50
2022-08-22T08:06:14.974Z,26.80
2022-08-22T08:08:58.526Z,28.75
2022-08-22T08:11:49.734Z,24.00
2022-08-22T08:14:24.595Z,23.75
2022-08-22T08:17:07.527Z,24.00
2022-08-22T08:19:41.908Z,24.80
2022-08-22T08:22:16.181Z,27.00
2022-08-22T08:24:50.425Z,30.00
2022-08-22T08:27:43.056Z,28.25
2022-08-22T08:30:19.164Z,32.00
2022-08-22T08:33:24.426Z,30.25
2022-08-22T08:36:02.977Z,27.33
2022-08-22T08:38:38.155Z,30.00
2022-08-22T08:41:15.048Z,30.00
2022-08-22T08:43:57.545Z,32.25
2022-08-22T08:46:32.236Z,32.25
2022-08-22T08:49:07.019Z,30.00
2022-08-22T08:51:44.821Z,30.50
2022-08-22T08:54:19.743Z,30.00
2022-08-22T08:56:54.342Z,31.40
2022-08-22T08:59:29.823Z,28.60
2022-08-22T09:02:07.805Z,32.00
2022-08-22T09:05:01.786Z,29.80
2022-08-22T09:07:38.345Z,29.75
2022-08-22T09:10:13.294Z,30.80
2022-08-22T09:12:56.461Z,31.60
2022-08-22T09:15:54.965Z,24.20
2022-08-22T09:18:38.800Z,29.40
2022-08-22T09:21:15.389Z,28.00
2022-08-22T09:24:04.957Z,26.00
2022-08-22T09:26:40.022Z,23.60
2022-08-22T09:29:15.053Z,22.25
2022-08-22T09:31:52.604Z,25.50
2022-08-22T09:34:30.769Z,27.60
2022-08-22T09:37:05.763Z,29.75
2022-08-22T09:39:41.832Z,26.20
2022-08-22T09:42:16.205Z,28.20
2022-08-22T09:44:51.685Z,23.20
2022-08-22T09:47:25.768Z,23.80
2022-08-22T09:50:00.122Z,22.00
2022-08-22T09:52:52.567Z,26.40
2022-08-22T09:55:35.405Z,23.00
2022-08-22T09:58:19.841Z,25.00
2022-08-22T10:01:02.829Z,26.25
2022-08-22T10:03:37.737Z,27.25
2022-08-22T10:06:11.994Z,24.80
2022-08-22T10:08:46.941Z,23.75
2022-08-22T10:11:21.054Z,26.00
2022-08-22T10:14:01.750Z,24.00
2022-08-22T10:16:50.177Z,28.20
2022-08-22T10:19:26.223Z,29.60
2022-08-22T10:22:12.694Z,24.60
2022-08-22T10:24:49.576Z,22.00
2022-08-22T10:27:25.824Z,22.00
2022-08-22T10:30:03.842Z,25.25
2022-08-22T10:35:34.393Z,25.20
2022-08-22T10:38:10.793Z,23.00
2022-08-22T10:40:47.085Z,27.80
2022-08-22T10:43:28.977Z,25.50
2022-08-22T10:46:22.962Z,19.40
2022-08-22T10:48:58.581Z,19.20
2022-08-22T10:51:33.432Z,18.60
2022-08-22T10:54:08.287Z,18.75
2022-08-22T10:56:43.860Z,25.00
2022-08-22T10:59:18.137Z,18.20
2022-08-22T11:02:00.776Z,17.75
2022-08-22T11:04:35.552Z,19.60
2022-08-22T11:07:36.187Z,19.00
2022-08-22T11:10:13.675Z,20.80
2022-08-22T11:12:50.325Z,16.00
2022-08-22T11:15:34.558Z,19.60
2022-08-22T11:18:12.898Z,18.00
2022-08-22T11:24:55.875Z,21.00
2022-08-22T11:27:39.728Z,18.40
2022-08-22T11:30:18.122Z,23.40
2022-08-22T11:32:56.122Z,20.50
2022-08-22T11:35:36.391Z,20.50
2022-08-22T11:38:13.546Z,25.00
2022-08-22T11:40:55.033Z,20.00
2022-08-22T11:43:32.740Z,19.60
2022-08-22T11:46:07.458Z,24.25
2022-08-22T11:48:48.627Z,21.60
2022-08-22T11:51:25.073Z,20.60
2022-08-22T11:53:59.377Z,22.00
2022-08-22T11:56:35.377Z,19.00
2022-08-22T11:59:14.528Z,22.40
2022-08-22T12:01:48.696Z,19.40
2022-08-22T12:04:24.956Z,20.60
2022-08-22T12:07:02.609Z,23.00
2022-08-22T12:09:37.885Z,23.40
2022-08-22T12:12:12.805Z,25.80
2022-08-22T12:14:47.719Z,22.00
2022-08-22T12:17:50.928Z,20.60
2022-08-22T12:20:20.423Z,23.00
2022-08-22T12:22:54.681Z,21.80
2022-08-22T12:25:29.462Z,24.00
2022-08-22T12:28:06.248Z,25.50
2022-08-22T12:30:43.848Z,24.00
2022-08-22T12:33:23.574Z,23.00
2022-08-22T12:35:58.495Z,27.50
2022-08-22T12:38:36.040Z,22.20
2022-08-22T12:41:12.400Z,24.50
2022-08-22T12:43:46.605Z,28.00
2022-08-22T12:46:23.742Z,27.20
2022-08-22T12:49:07.682Z,23.00
2022-08-22T12:51:50.328Z,24.60
2022-08-22T12:54:29.832Z,26.60
2022-08-22T12:57:04.849Z,22.20
2022-08-22T12:59:58.219Z,22.60
2022-08-22T13:02:34.667Z,21.50
2022-08-22T13:05:12.281Z,22.00
2022-08-22T13:08:13.734Z,25.00
2022-08-22T13:10:54.342Z,26.25
2022-08-22T13:13:31.669Z,22.75
2022-08-22T13:16:11.607Z,19.80
2022-08-22T13:18:46.128Z,20.60
2022-08-22T13:21:24.948Z,22.00
2022-08-22T13:24:02.870Z,21.50
2022-08-22T13:26:43.266Z,18.50
2022-08-22T13:29:27.433Z,21.00
2022-08-22T13:32:12.810Z,17.00
2022-08-22T13:34:46.920Z,18.50
2022-08-22T13:37:24.591Z,17.40
2022-08-22T13:39:58.990Z,23.00
2022-08-22T13:42:33.401Z,27.40
2022-08-22T13:45:08.560Z,21.40
2022-08-22T13:47:45.698Z,22.40
2022-08-22T13:50:52.931Z,26.20
2022-08-22T13:53:29.891Z,20.80
2022-08-22T13:56:04.420Z,21.25
2022-08-22T13:58:39.200Z,27.00
2022-08-22T14:01:14.712Z,24.00
2022-08-22T14:03:55.838Z,24.40
2022-08-22T14:06:36.857Z,26.00
2022-08-22T14:09:13.661Z,23.80
2022-08-22T14:11:48.319Z,29.40
2022-08-22T14:14:23.322Z,23.00
2022-08-22T14:17:01.031Z,28.75
2022-08-22T14:19:52.623Z,23.60
2022-08-22T14:22:31.835Z,22.50
2022-08-22T14:25:09.480Z,22.00
2022-08-22T14:27:49.137Z,23.40
2022-08-22T14:30:27.939Z,23.00
2022-08-22T14:33:02.421Z,25.50
2022-08-22T14:35:39.249Z,18.60
2022-08-22T14:38:17.290Z,24.80
2022-08-22T14:40:51.796Z,27.75
2022-08-22T14:43:27.711Z,22.00
2022-08-22T14:46:02.401Z,24.40
2022-08-22T14:48:39.352Z,26.60
2022-08-22T14:51:16.914Z,28.25
2022-08-22T14:53:53.105Z,27.00
2022-08-22T14:56:28.457Z,24.00
2022-08-22T14:59:03.103Z,29.25
2022-08-22T15:01:37.458Z,26.00
2022-08-22T15:04:11.606Z,23.60
2022-08-22T15:06:48.322Z,31.00
2022-08-22T15:09:22.668Z,26.00
2022-08-22T15:11:57.286Z,31.40
2022-08-22T15:14:31.698Z,29.20
2022-08-22T15:17:05.732Z,26.20
2022-08-22T15:19:41.310Z,25.00
2022-08-22T15:22:15.908Z,24.00
2022-08-22T15:24:50.086Z,23.67
2022-08-22T15:27:29.038Z,24.80
2022-08-22T15:30:03.669Z,29.40
2022-08-22T15:32:41.935Z,24.50
2022-08-22T15:35:17.758Z,29.40
2022-08-22T15:37:52.473Z,25.40
2022-08-22T15:40:26.506Z,24.20
2022-08-22T15:43:01.561Z,30.75
2022-08-22T15:45:36.271Z,25.50
2022-08-22T15:48:11.033Z,29.20
2022-08-22T15:50:45.119Z,26.75
2022-08-22T15:53:19.287Z,24.00
2022-08-22T15:55:53.351Z,28.80
2022-08-22T15:58:27.769Z,30.00
2022-08-22T16:01:01.941Z,27.00
2022-08-22T16:03:36.126Z,22.60
2022-08-22T16:06:10.645Z,28.60
2022-08-22T16:08:45.797Z,30.20
2022-08-22T16:11:19.905Z,24.60
2022-08-22T16:13:53.958Z,26.00
2022-08-22T16:16:31.451Z,25.00
2022-08-22T16:19:05.472Z,29.00
2022-08-22T16:21:39.692Z,26.75
2022-08-22T16:24:14.208Z,25.00
2022-08-22T16:26:51.076Z,27.50
2022-08-22T16:29:25.242Z,29.50
2022-08-22T16:31:59.419Z,27.00
2022-08-22T16:34:33.742Z,29.40
2022-08-22T16:37:07.931Z,25.40
2022-08-22T16:39:42.054Z,23.25
2022-08-22T16:42:23.443Z,25.00
2022-08-22T16:44:57.947Z,24.00
2022-08-22T16:47:33.451Z,15.00
2022-08-22T16:50:07.499Z,21.60
2022-08-22T16:52:41.459Z,24.00
2022-08-22T16:55:16.709Z,17.25
2022-08-22T16:58:05.265Z,19.00
2022-08-22T17:00:40.087Z,15.40
2022-08-22T17:03:14.202Z,17.00
2022-08-22T17:05:48.415Z,16.40
2022-08-22T17:08:23.013Z,15.00
2022-08-22T17:10:57.217Z,21.75
2022-08-22T17:13:32.832Z,16.00
2022-08-22T17:16:07.905Z,16.60
2022-08-22T17:18:42.037Z,18.00
2022-08-22T17:21:16.139Z,15.00
2022-08-22T17:23:50.367Z,14.50
2022-08-22T17:26:24.780Z,16.75
2022-08-22T17:28:58.879Z,14.00
2022-08-22T17:31:33.606Z,18.60
2022-08-22T17:34:07.792Z,16.25
2022-08-22T17:36:42.262Z,15.00
2022-08-22T17:39:16.539Z,16.50
2022-08-22T17:41:50.688Z,13.75
2022-08-22T17:44:24.786Z,16.00
2022-08-22T17:46:59.311Z,14.40
2022-08-22T17:49:33.360Z,16.50
2022-08-22T17:52:07.771Z,15.60
2022-08-22T17:54:42.373Z,12.50
2022-08-22T17:57:16.424Z,13.50
2022-08-22T17:59:50.877Z,15.60
2022-08-22T18:02:25.620Z,17.75
2022-08-22T18:05:00.064Z,13.20
2022-08-22T18:07:34.669Z,14.67
2022-08-22T18:10:08.806Z,13.25
2022-08-22T18:12:42.903Z,13.00
2022-08-22T18:15:17.034Z,9.60
2022-08-22T18:17:51.249Z,11.00
2022-08-22T18:20:25.437Z,16.25
2022-08-22T18:22:59.685Z,12.00
2022-08-22T18:25:35.320Z,11.00
2022-08-22T18:28:09.401Z,10.00
2022-08-22T18:30:43.653Z,11.00
2022-08-22T18:33:17.761Z,10.00
2022-08-22T18:35:54.526Z,10.00
2022-08-22T18:38:30.285Z,9.00
2022-08-22T18:41:04.708Z,8.00
2022-08-22T18:43:38.911Z,14.75
2022-08-22T18:46:13.465Z,10.20
2022-08-22T18:49:12.044Z,10.00
2022-08-22T18:51:42.576Z,12.25
2022-08-22T18:54:16.780Z,9.60
2022-08-22T18:56:51.185Z,8.40
2022-08-22T18:59:25.747Z,7.80
2022-08-22T19:02:00.104Z,10.40
2022-08-22T19:04:34.668Z,8.00
2022-08-22T19:07:08.765Z,8.20
2022-08-22T19:09:42.796Z,8.75
2022-08-22T19:12:17.300Z,8.00
2022-08-22T19:14:51.395Z,7.00
2022-08-22T19:17:25.441Z,8.00
2022-08-22T19:20:17.751Z,9.00
2022-08-22T19:22:54.633Z,8.00
2022-08-22T19:25:28.776Z,10.00
2022-08-22T19:28:02.879Z,5.20
2022-08-22T19:30:37.058Z,9.00
2022-08-22T19:33:11.142Z,6.00
2022-08-22T19:35:45.187Z,6.00
2022-08-22T19:38:19.418Z,6.00
2022-08-22T19:40:54.334Z,7.50
2022-08-22T19:43:28.856Z,10.60
2022-08-22T19:46:04.744Z,5.25
2022-08-22T19:48:38.836Z,5.00
2022-08-22T19:51:13.567Z,4.00
2022-08-22T19:53:47.638Z,5.00
2022-08-22T19:56:21.583Z,6.00
2022-08-22T19:58:56.121Z,4.80
2022-08-22T20:01:30.295Z,4.00
2022-08-22T20:04:04.641Z,5.00
2022-08-22T20:06:46.259Z,3.00
2022-08-22T20:09:21.001Z,5.00
2022-08-22T20:11:56.201Z,5.00
2022-08-22T20:14:31.606Z,5.00
2022-08-22T20:17:05.721Z,3.80
2022-08-22T20:19:39.872Z,4.00
2022-08-22T20:22:14.689Z,5.00
2022-08-22T20:24:49.967Z,6.00
2022-08-22T20:27:24.556Z,4.50
2022-08-22T20:29:58.487Z,4.40
2022-08-22T20:32:32.433Z,2.60
2022-08-22T20:35:06.469Z,4.40
2022-08-22T20:38:05.367Z,4.00
2022-08-22T20:40:55.163Z,3.00
2022-08-22T20:43:28.571Z,4.20
2022-08-22T20:46:02.640Z,2.00
2022-08-22T20:48:37.209Z,3.60
2022-08-22T20:51:11.656Z,3.00
2022-08-22T20:53:45.613Z,1.00
2022-08-22T20:56:24.036Z,3.00
2022-08-22T20:59:01.041Z,2.00
2022-08-22T21:01:35.496Z,2.00
2022-08-22T21:04:09.500Z,3.00
2022-08-22T21:06:43.550Z,4.00
2022-08-22T21:09:35.921Z,2.60
2022-08-22T21:12:10.636Z,3.00
2022-08-22T21:14:47.985Z,4.40
2022-08-22T21:17:22.084Z,7.75
2022-08-22T21:19:57.888Z,3.00
2022-08-22T21:22:32.000Z,5.00
2022-08-22T21:25:05.959Z,4.00
2022-08-22T21:27:39.992Z,3.00
2022-08-22T21:30:13.940Z,4.80
2022-08-22T21:32:50.156Z,3.00
2022-08-22T21:35:27.763Z,3.00
2022-08-22T21:38:01.983Z,5.00
2022-08-22T21:40:36.205Z,2.60
2022-08-22T21:43:10.727Z,2.00
2022-08-22T21:45:45.033Z,1.00
2022-08-22T21:48:19.067Z,2.20
2022-08-22T21:50:53.137Z,4.00
2022-08-22T21:53:28.479Z,1.00
2022-08-22T21:56:02.706Z,2.00
2022-08-22T21:58:37.493Z,2.00
2022-08-22T22:01:11.638Z,3.00
2022-08-22T22:03:48.405Z,2.00
2022-08-22T22:06:22.443Z,3.00
2022-08-22T22:08:56.542Z,3.00
2022-08-22T22:11:30.574Z,2.00
2022-08-22T22:14:04.684Z,4.00
2022-08-22T22:16:39.287Z,4.00
2022-08-22T22:19:13.749Z,4.00
2022-08-22T22:21:47.899Z,2.00
2022-08-22T22:24:21.931Z,2.00
2022-08-22T22:26:55.955Z,4.00
2022-08-22T22:29:29.941Z,4.00
2022-08-22T22:32:04.327Z,5.00
2022-08-22T22:34:39.955Z,4.00
2022-08-22T22:37:15.574Z,3.00
2022-08-22T22:39:49.586Z,4.00
2022-08-22T22:42:23.724Z,2.20
2022-08-22T22:44:57.910Z,5.00
2022-08-22T22:47:32.944Z,3.00
2022-08-22T22:50:06.888Z,4.00
2022-08-22T22:52:41.137Z,3.00
2022-08-22T22:55:24.132Z,3.00
2022-08-22T22:57:59.577Z,4.00
2022-08-22T23:00:34.197Z,4.00
2022-08-22T23:03:08.398Z,3.00
2022-08-22T23:05:42.463Z,3.20
2022-08-22T23:08:16.527Z,4.00
2022-08-22T23:10:50.763Z,4.75
2022-08-22T23:13:24.811Z,5.50
2022-08-22T23:15:58.828Z,3.00
2022-08-22T23:18:32.870Z,4.00
2022-08-22T23:21:07.690Z,5.00
2022-08-22T23:23:42.157Z,5.00
2022-08-22T23:26:16.205Z,5.00
2022-08-22T23:28:50.235Z,4.40
2022-08-22T23:31:24.178Z,4.60
2022-08-22T23:33:58.253Z,9.00
2022-08-22T23:36:32.280Z,4.60
2022-08-22T23:39:06.307Z,4.00
2022-08-22T23:41:41.290Z,7.00
2022-08-22T23:44:15.308Z,6.00
2022-08-22T23:46:49.287Z,6.00
2022-08-22T23:49:23.315Z,10.00
2022-08-22T23:51:57.236Z,7.40
2022-08-22T23:54:31.432Z,7.00
2022-08-22T23:57:11.822Z,7.50
2022-08-22T23:59:57.446Z,4.00
